首页
METAR-TAF:

METAR-TAF

机场 :

Humberside, 英格兰

纬度: 53-35N, 经度: 000-21W, 海拔: 31米

当前天气观测

该预报发布于46分钟前的23:50 UTC
风速3节,风向南转西南
温度 12°C
湿度 82%
气压 1036 hPa
能见度10公里或以上

METAR: EGNJ 262350Z AUTO 21003KT 9999 NCD 12/09 Q1036

时间: 01:36 (00:36 UTC)

预报

该预报发布于4小时和39分钟前的19:57 UTC
预报有效从26日的 21点(UTC)到 27日的 06点(UTC)
风速4节,风向西
能见度10公里或以上
少量云层高于4000英尺
几率 30%
从 27日的 02点(UTC)到 27日的 06点(UTC)
能見度: 8000

TAF: EGNJ 261957Z 2621/2706 28004KT 9999 FEW040 PROB30 2702/2706 8000

超过4000个机场的气象观测和天气预报(METAR&TAF报告)。

可查询的气象台以黄色和红色小点在地图上表示。

将鼠标移到小点上方,可查看气象台名称。

然后点击查看天气观测和预报。

如需切换地图:点击带黑十字的绿色按钮放大地图;点击带横线的绿色按钮缩小地图;或者点击绿色箭头查看邻近地区的地图。


METAR-TAF: